Airfield :







YOU CAN JOIN US ON...

 
LOGIN :

Register | Disclaimer

   EN    FR    IT 

 









Legend :    VFR   Marginal VFR   IFR   Intensive IFR   Very Intensive IFR
Visi :
Ceiling :
>= 8 km
>= 3000ft
5 to 8 km
1000 to 3000 ft
1500m to 5 km
500 to 1000 ft
800 to 1500m
200 to 500 ft
< 800m
< 200 ft
Symbols :   Thunderstorms  Fog  Heavy snow  Heavy precipitations  Wind > 20 kt







- Airport Elevation : 160 ft
- IATA code : YYG


CYYG - Charlottetown

CURRENT METAR :
  • 210800Z 15003KT 100V170 15SM FEW020 SCT040 BKN160 BKN200 22/19 A2957 RMK SC1SC3AC2CC1 SLP015 DENSITY ALT 1400FT

EXPIRED METARs :
  • 210707Z VRB02KT 15SM FEW020 SCT040 OVC160 23/18 A2958 WS RWY03 RMK SC2SC2AC4 CB ASOCTD DIST E OCNL LTGIC SLP018 DENSITY ALT 1500FT
  • 210650Z 34010G19KT 210V350 15SM -SHRA SCT025 OVC050 22/18 A2961 RMK SC3SC5 CVCTV CLD EMBD PRESRR SLP027 DENSITY ALT 1400FT
  • 210632Z 21006KT 15SM -SHRA BKN060 OVC080 22/19 A2956 RMK SC5AC3 CB ASOCTD N OCNL LTGIC SLP010 DENSITY ALT 1500FT
  • 210600Z 19008KT 15SM FEW030 SCT070 BKN120 22/18 A2956 RMK SC1AC3AC3 CB ASOCTD DIST N OCNL LTGIC SLP012 DENSITY ALT 1500FT
  • 210545Z 19006KT 15SM BKN075 BKN110 22/18 A2957 RMK AC5AC2 CB ASOCTD DIST N OCNL LTGIC SLP016 DENSITY ALT 1500FT

TAF TAF CYYG
Valid from the 21 at 06:00 until the 21 at 18:00 UTC


210539Z 2106/2118 22008KT P6SM BKN180 OVC240
TEMPO 2106/2108 P6SM -SHRA BKN060 OVC180
BECMG 2113/2115 34008KT RMK NXT FCST BY 211200Z
CZQM FIR / North America



MET'MAP, your aeronautical weather chart ! - Copyright ORBIFLY December 2007 - Disclaimer

ORBIFLY MET'MAP TEAM :

Programming & Development : Alexandra Zaïnal
Concept & Development : Baudouin d'Aumeries
Co-Development & Prog : Marc-Olivier Méhu
Technical & hardware support : Manuel Goepfert

Contact : metmap@orbifly.com




SOURCES & CREDITS :

   NOAA